Latest Coastal Weather Observations for Cape Grim

IDT60701

Issued at 5:33 pm EDT Friday 3 December 2021 (issued every 10 minutes, with the page automatically refreshed every 10 minutes)

About coastal observations | Map of coastal stations | Coastal observations for TAS | Marine services | Other Formats
Station Details ID: 091331 Name: CAPE GRIM Lat: -40.68 Lon: 144.69 Height: 86.0 m
Data from the previous 72 hours. | See also: Recent months at Cape Grim
Date/Time
EDT
Wind Sea
Height
m
Swell Vis
km
Cloud Weather Temp
°C
Press
MSL
hPa
Rain since
9am
mm
Dir  Spd
kts
Gust
kts
Height
m
Period
s
Dir
03/05:00pm - 11 19 - - - - - Partly cloudy - 13.5 1018.2 0.2
03/04:30pm - 10 18 - - - - - Partly cloudy - 14.0 1018.3 0.2
03/04:00pm - 11 18 - - - - - Partly cloudy - 14.0 1018.4 0.2
03/03:30pm - 12 22 - - - - - Partly cloudy - 13.9 1018.5 0.2
03/03:00pm - 12 19 - - - - - Mostly clear - 14.2 1018.5 0.2
03/02:30pm - 12 18 - - - - - - - 14.4 1018.6 0.2
03/02:00pm - 15 20 - - - - - Partly cloudy - 14.4 1018.7 0.2
03/01:30pm - 16 22 - - - - - Partly cloudy - 14.6 1018.7 0.2
03/01:00pm - 16 21 - - - - - Partly cloudy - 14.6 1018.7 0.2
03/12:30pm - 16 21 - - - - - Partly cloudy - 14.3 1018.9 0.2
03/12:00pm - 17 21 - - - - - Partly cloudy Recent precip. 14.3 1018.9 0.2
03/11:30am - 17 22 - - - - - Partly cloudy - 14.5 1018.8 0.2
03/11:00am - 18 23 - - - - - Partly cloudy - 13.9 1018.7 0.0
03/10:30am - 16 20 - - - - - Partly cloudy - 14.1 1018.7 0.0
03/10:00am - 18 23 - - - - - Partly cloudy - 13.8 1018.9 0.0
03/09:30am - 19 23 - - - - - - - 13.4 1018.8 0.0
03/09:00am - 19 22 - - - - - - - 13.1 1018.6 0.6
03/08:30am - 18 26 - - - - - Partly cloudy - 13.2 1018.6 0.6
03/08:00am - 17 22 - - - - - Partly cloudy - 13.1 1018.3 0.6
03/07:30am - 17 21 - - - - - Partly cloudy - 12.8 1018.0 0.6
03/07:00am - 17 21 - - - - - Partly cloudy - 12.6 1017.7 0.6
03/06:30am - 19 22 - - - - - Partly cloudy - 12.0 1017.3 0.6
03/06:00am - 16 20 - - - - - Mostly clear - 12.2 1017.2 0.6
03/05:30am - 17 21 - - - - - Partly cloudy - 12.3 1017.0 0.6
03/05:00am - 17 21 - - - - - Partly cloudy - 12.4 1016.7 0.6
03/04:30am - 19 23 - - - - - Partly cloudy - 12.4 1016.4 0.6
03/04:00am - 18 22 - - - - - Partly cloudy - 12.5 1016.3 0.6
03/03:45am - 18 23 - - - - - Partly cloudy - 12.6 1016.2 0.6
03/03:31am - 12 21 - - - - - Partly cloudy - 12.7 1016.0 0.6
03/03:30am - 12 18 - - - - - Partly cloudy - 12.8 1016.0 0.6
03/03:00am - 10 15 - - - - - Cloudy - 12.8 1016.1 0.6
03/02:30am - 11 18 - - - - - Partly cloudy - 13.0 1016.2 0.6
03/02:00am - 9 15 - - - - - Partly cloudy - 13.3 1016.0 0.6
03/01:30am - 10 17 - - - - - Partly cloudy - 13.1 1016.2 0.6
03/01:00am - 13 23 - - - - - - - 13.1 1016.3 0.6
03/12:30am - 15 21 - - - - - Partly cloudy - 13.2 1016.5 0.6
03/12:00am - 17 25 - - - - - Partly cloudy - 13.0 1016.7 0.6
 
Date/Time
EDT
Wind Sea
Height
m
Swell Vis
km
Cloud Weather Temp
°C
Press
MSL
hPa
Rain since
9am
mm
Dir  Spd
kts
Gust
kts
Height
m
Period
s
Dir
02/11:30pm - 9 15 - - - - - Partly cloudy - 13.2 1016.7 0.6
02/11:00pm - 10 19 - - - - - Cloudy - 13.3 1016.5 0.6
02/10:30pm - 15 24 - - - - - Cloudy - 13.3 1016.2 0.6
02/10:00pm - 20 25 - - - - - Partly cloudy - 13.2 1015.9 0.6
02/09:30pm - 20 27 - - - - - Partly cloudy - 13.0 1015.5 0.6
02/09:00pm - 20 36 - - - - - Mostly clear - 13.0 1014.8 0.6
02/08:30pm - 22 27 - - - - - Partly cloudy - 12.9 1014.4 0.6
02/08:00pm - 22 28 - - - - - Partly cloudy - 12.8 1014.1 0.6
02/07:30pm - 21 26 - - - - - Partly cloudy - 13.1 1013.6 0.6
02/07:12pm - 20 24 - - - - - Partly cloudy - 12.9 1013.5 0.6
02/07:00pm - 20 25 - - - - - Partly cloudy - 13.0 1013.3 0.6
02/06:30pm - 23 27 - - - - - Cloudy - 12.9 1012.5 0.6
02/06:00pm - 22 25 - - - - - Cloudy - 13.4 1011.9 0.6
02/05:30pm - 17 21 - - - - - Cloudy - 13.8 1012.1 0.6
02/05:00pm - 15 20 - - - - - Cloudy - 14.1 1012.1 0.6
02/04:30pm - 12 16 - - - - - Cloudy - 14.8 1012.1 0.6
02/04:00pm - 9 14 - - - - - Cloudy - 15.1 1012.0 0.6
02/03:44pm - 7 9 - - - - - Partly cloudy - 16.0 1011.8 0.6
02/03:33pm - 8 10 - - - - - Partly cloudy - 15.3 1011.9 0.6
02/03:30pm - 8 10 - - - - - Partly cloudy - 15.3 1011.9 0.6
02/03:00pm - 10 14 - - - - - Mostly cloudy Recent precip. 14.8 1011.9 0.6
02/02:30pm - 11 13 - - - - - Partly cloudy - 16.1 1012.0 0.6
02/02:00pm - 10 13 - - - - - Cloudy - 16.7 1012.4 0.2
02/01:30pm - 7 10 - - - - - Partly cloudy - 17.4 1012.7 0.2
02/01:23pm - 7 9 - - - - - Partly cloudy - 17.0 1012.9 0.2
02/01:00pm - 5 7 - - - - - - - 18.3 1013.1 0.2
02/12:30pm - 3 5 - - - - - Partly cloudy - 19.1 1013.1 0.2
02/12:00pm - 6 8 - - - - - Mostly clear - 18.8 1013.2 0.0
02/11:30am - 6 9 - - - - - Partly cloudy - 19.5 1013.3 0.0
02/11:00am - 9 11 - - - - - Partly cloudy - 19.5 1013.2 0.0
02/10:30am - 12 15 - - - - - - - 19.3 1013.2 0.0
02/10:00am - 16 18 - - - - - - - 18.5 1012.8 0.0
02/09:30am - 17 20 - - - - - - - 18.5 1013.0 0.0
02/09:00am - 16 19 - - - - - - - 18.2 1012.9 0.0
02/08:30am - 16 20 - - - - - - - 17.8 1012.5 0.0
02/08:00am - 16 20 - - - - - - - 17.0 1012.5 0.0
02/07:30am - 14 18 - - - - - - - 16.5 1012.5 0.0
02/07:00am - 14 17 - - - - - Partly cloudy - 16.2 1012.5 0.0
02/06:30am - 14 16 - - - - - - - 15.7 1012.1 0.0
02/06:00am - 16 19 - - - - - - - 15.4 1011.5 0.0
02/05:30am - 15 17 - - - - - - - 14.0 1011.2 0.0
02/05:00am - 15 18 - - - - - - - 14.4 1011.4 0.0
02/04:30am - 14 15 - - - - - - - 13.8 1011.1 0.0
02/04:00am - 9 11 - - - - - - - 14.1 1011.7 0.0
02/03:34am - 6 8 - - - - - Partly cloudy - 14.0 1011.8 0.0
02/03:30am - 6 7 - - - - - Partly cloudy - 14.1 1012.0 0.0
02/03:00am - 5 6 - - - - - Cloudy - 14.5 1012.1 0.0
02/02:30am - 7 9 - - - - - Cloudy - 14.9 1012.2 0.0
02/02:00am - 9 11 - - - - - Partly cloudy - 15.3 1012.5 0.0
02/01:49am - 8 11 - - - - - Partly cloudy - 15.2 1012.5 0.0
02/01:30am - 8 9 - - - - - Partly cloudy - 14.8 1012.7 0.0
02/01:26am - 7 9 - - - - - Partly cloudy - 14.7 1012.7 0.0
02/01:00am - 5 6 - - - - - Cloudy - 14.9 1013.0 0.0
02/12:35am - 3 5 - - - - - Partly cloudy - 14.9 1013.4 0.0
02/12:30am - 4 5 - - - - - Partly cloudy - 14.8 1013.4 0.0
02/12:00am - 6 7 - - - - - - - 14.6 1013.3 0.0
 
Date/Time
EDT
Wind Sea
Height
m
Swell Vis
km
Cloud Weather Temp
°C
Press
MSL
hPa
Rain since
9am
mm
Dir  Spd
kts
Gust
kts
Height
m
Period
s
Dir
01/11:30pm - 5 6 - - - - - - - 14.8 1013.3 0.0
01/11:12pm - 7 8 - - - - - Partly cloudy - 14.8 1013.2 0.0
01/11:00pm - 4 6 - - - - - Partly cloudy - 15.0 1013.4 0.0
01/10:30pm - 4 4 - - - - - Cloudy - 15.3 1013.7 0.0
01/10:00pm - 4 5 - - - - - Partly cloudy - 14.9 1013.7 0.0
01/09:30pm - 5 6 - - - - - Partly cloudy - 15.4 1013.6 0.0
01/09:00pm - 7 9 - - - - - Mostly cloudy - 15.8 1013.5 0.0
01/08:39pm - 5 6 - - - - - Partly cloudy - 15.7 1013.3 0.0
01/08:30pm - 5 7 - - - - - Partly cloudy - 15.6 1013.1 0.0
01/08:00pm - 8 10 - - - - - - - 15.9 1013.1 0.0
01/07:30pm - 6 9 - - - - - Partly cloudy - 16.2 1012.9 0.0
01/07:00pm - 8 11 - - - - - Partly cloudy - 18.0 1012.4 0.0
01/06:30pm - 11 14 - - - - - Partly cloudy - 18.2 1012.1 0.0
01/06:00pm - 16 18 - - - - - - - 18.1 1011.7 0.0
01/05:30pm - 15 17 - - - - - - - 18.7 1011.8 0.0
01/05:00pm - 17 20 - - - - - - - 19.0 1011.9 0.0
01/04:30pm - 17 20 - - - - - - - 19.4 1011.9 0.0
01/04:00pm - 19 23 - - - - - - - 19.8 1011.8 0.0
01/03:30pm - 20 24 - - - - - Partly cloudy - 19.5 1012.1 0.0
01/03:00pm - 20 25 - - - - - Mostly clear - 19.3 1012.1 0.0
01/02:30pm - 21 24 - - - - - Partly cloudy - 19.0 1012.1 0.0
01/02:00pm - 20 24 - - - - - - - 19.8 1012.4 0.0
01/01:30pm - 22 26 - - - - - - - 18.6 1012.5 0.0
01/01:00pm - 22 28 - - - - - Partly cloudy - 17.6 1012.5 0.0
01/12:30pm - 19 23 - - - - - Partly cloudy - 17.1 1012.9 0.0
01/12:19pm - 19 23 - - - - - Partly cloudy - 16.8 1013.1 0.0
01/12:00pm - 23 28 - - - - - Cloudy - 16.4 1012.8 0.0
01/11:30am - 25 31 - - - - - Partly cloudy - 17.4 1012.2 0.0
01/11:16am - 24 29 - - - - - Partly cloudy - 16.6 1012.2 0.0
01/11:00am - 23 28 - - - - - Partly cloudy - 16.0 1012.4 0.0
01/10:30am - 26 31 - - - - - Partly cloudy - 16.4 1012.3 0.0
01/10:16am - 26 31 - - - - - Partly cloudy - 16.0 1012.3 0.0
01/10:00am - 25 30 - - - - - Partly cloudy - 16.0 1012.1 0.0
01/09:30am - 27 34 - - - - - Cloudy - 15.7 1011.9 0.0
01/09:00am - 29 37 - - - - - Mostly cloudy - 15.6 1011.7 0.0
01/08:30am - 27 34 - - - - - Cloudy - 15.5 1011.9 0.0
01/08:00am - 27 32 - - - - - Cloudy - 15.4 1011.7 0.0
01/07:30am - 27 33 - - - - - Cloudy - 15.4 1011.4 0.0
01/07:00am - 27 33 - - - - - Cloudy - 15.2 1011.1 0.0
01/06:30am - 27 33 - - - - - Cloudy - 15.0 1011.1 0.0
01/06:00am - 25 33 - - - - - Mostly cloudy - 14.9 1011.0 0.0
01/05:00am - 27 33 - - - - - Cloudy - 15.1 1011.0 0.0
01/04:30am - 24 31 - - - - - Partly cloudy - 15.0 1011.0 0.0
01/04:00am - 25 32 - - - - - Cloudy - 15.1 1011.1 0.0
01/03:30am - 26 33 - - - - - Partly cloudy - 15.2 1011.2 0.0
01/03:17am - 25 34 - - - - - Partly cloudy - 15.2 1011.2 0.0
01/03:01am - 24 30 - - - - - Partly cloudy - 15.1 1011.5 0.0
01/03:00am - 24 30 - - - - - Cloudy - 15.1 1011.5 0.0
01/02:30am - 23 28 - - - - - Partly cloudy - 15.2 1011.9 0.0
01/02:25am - 25 29 - - - - - Partly cloudy - 15.2 1011.9 0.0
01/02:05am - 25 30 - - - - - Partly cloudy - 15.1 1012.0 0.0
01/02:00am - 25 30 - - - - - Partly cloudy - 15.2 1012.1 0.0
01/01:30am - 23 28 - - - - - Partly cloudy - 15.2 1012.3 0.0
01/01:00am - 23 29 - - - - - Partly cloudy - 15.2 1012.4 0.0
01/12:49am - 24 31 - - - - - Partly cloudy - 15.1 1012.5 0.0
01/12:30am - 25 31 - - - - - Partly cloudy - 15.0 1012.5 0.0
01/12:00am - 24 31 - - - - - Partly cloudy - 15.1 1012.7 0.0
 
Date/Time
EDT
Wind Sea
Height
m
Swell Vis
km
Cloud Weather Temp
°C
Press
MSL
hPa
Rain since
9am
mm
Dir  Spd
kts
Gust
kts
Height
m
Period
s
Dir
30/11:30pm - 25 31 - - - - - Partly cloudy - 15.1 1012.8 0.0
30/11:22pm - 25 31 - - - - - Partly cloudy - 15.1 1012.9 0.0
30/11:00pm - 25 33 - - - - - Partly cloudy - 15.0 1012.9 0.0
30/10:30pm - 26 31 - - - - - Partly cloudy - 15.0 1013.1 0.0
30/10:00pm - 24 30 - - - - - Partly cloudy - 14.9 1013.3 0.0
30/09:48pm - 23 28 - - - - - Partly cloudy - 14.9 1013.3 0.0
30/09:38pm - 23 28 - - - - - Partly cloudy - 14.9 1013.4 0.0
30/09:30pm - 22 27 - - - - - Partly cloudy - 14.9 1013.3 0.0
30/09:00pm - 22 26 - - - - - Partly cloudy - 15.0 1013.3 0.0
30/08:30pm - 23 27 - - - - - Partly cloudy - 15.1 1013.1 0.0
30/08:00pm - 23 28 - - - - - - - 15.5 1013.1 0.0
30/07:30pm - 24 29 - - - - - - - 15.9 1013.2 0.0
30/07:00pm - 24 29 - - - - - - - 16.3 1013.1 0.0
30/06:30pm - 24 30 - - - - - Partly cloudy - 16.3 1013.0 0.0
30/06:00pm - 24 31 - - - - - Mostly clear - 16.9 1012.9 0.0

Other formats

Comma delimited format used in spreadsheet applications
http://www.bom.gov.au/fwo/IDT60701/IDT60701.95954.axf

JavaScript Object Notation format (JSON) in row-major order
http://www.bom.gov.au/fwo/IDT60701/IDT60701.95954.json

Data quality

Most of these data are generated automatically and are frequently updated. Quality checks on data are not normally performed. It is possible for incorrect values to appear. Refer to information at About Latest Weather Observations and please check the disclaimer before using these data.